Latest Weather Observations for Cape Otway

IDV60801

Issued at 9:03 am EDT Thursday 23 February 2017 (issued every 30 minutes, with the page automatically refreshed every 10 minutes)

About weather observations | Map of weather stations | Latest weather observations for VIC | Other Formats
Station Details ID: 090015 Name: CAPE OTWAY LIGHTHOUSE Lat: -38.86 Lon: 143.51 Height: 82.0 m
Data from the previous 72 hours. | See also: Recent months at Cape Otway
Date/Time
EDT
Temp
°C
App
Temp
°C
Dew
Point
°C
Rel
Hum
%
Delta-T
°C
Wind Press
QNH
hPa
Press
MSL
hPa
Rain since
9am
mm
Dir  Spd
km/h
Gust
km/h
Spd
kts
Gust
kts
23/09:00am 17.3 13.3 14.0 81 1.9 W 28 41 15 22 1015.6 1015.4 0.0
23/08:30am 17.4 13.1 14.3 82 1.8 WNW 30 41 16 22 1014.9 1014.8 0.0
23/08:00am 17.2 12.4 13.9 81 1.9 W 32 50 17 27 1014.3 1014.2 0.0
23/07:49am 17.2 12.4 14.1 82 1.8 WNW 32 50 17 27 1014.1 1014.0 0.0
23/07:30am 16.6 12.7 13.3 81 1.9 WNW 26 41 14 22 1013.9 1013.8 0.0
23/07:00am 16.8 12.6 12.5 76 2.4 WNW 26 43 14 23 1013.4 1013.3 0.0
23/06:30am 16.6 12.6 11.7 73 2.7 WNW 24 43 13 23 1012.8 1012.6 0.0
23/06:17am 16.8 12.0 11.7 72 2.8 NW 28 46 15 25 1012.7 1012.5 0.0
23/06:00am 17.3 13.4 12.0 71 2.9 NW 24 37 13 20 1012.4 1012.2 0.0
23/05:33am 17.5 12.8 12.0 70 3.0 NW 28 48 15 26 1012.1 1011.9 0.0
23/05:30am 17.6 12.9 12.1 70 3.0 NW 28 39 15 21 1012.1 1011.9 0.0
23/05:00am 17.6 13.7 12.1 70 3.0 WNW 24 37 13 20 1011.7 1011.5 0.0
23/04:30am 17.8 13.9 12.0 69 3.2 WNW 24 39 13 21 1011.4 1011.2 0.0
23/04:00am 17.9 14.3 11.7 67 3.4 NW 22 37 12 20 1011.2 1011.0 0.0
23/03:30am 18.0 13.9 11.6 66 3.5 WNW 24 43 13 23 1010.8 1010.6 0.0
23/03:00am 18.1 13.9 11.2 64 3.8 NW 24 35 13 19 1010.8 1010.6 0.0
23/02:30am 18.2 14.3 10.8 62 4.0 NW 22 39 12 21 1010.7 1010.5 0.0
23/02:00am 18.3 14.4 10.9 62 4.0 NW 22 33 12 18 1010.7 1010.5 0.0
23/01:37am 18.7 13.8 11.3 62 4.1 NW 28 46 15 25 1010.7 1010.5 0.0
23/01:30am 18.5 14.7 11.1 62 4.0 NW 22 35 12 19 1010.7 1010.5 0.0
23/01:00am 18.7 14.6 11.5 63 4.0 NW 24 37 13 20 1010.4 1010.2 0.0
23/12:30am 18.7 14.3 11.8 64 3.8 NW 26 37 14 20 1010.5 1010.3 0.0
23/12:00am 18.7 15.0 11.5 63 4.0 WNW 22 32 12 17 1010.5 1010.3 0.0
 
Date/Time
EDT
Temp
°C
App
Temp
°C
Dew
Point
°C
Rel
Hum
%
Delta-T
°C
Wind Press
QNH
hPa
Press
MSL
hPa
Rain since
9am
mm
Dir  Spd
km/h
Gust
km/h
Spd
kts
Gust
kts
22/11:30pm 18.6 15.0 11.7 64 3.8 WNW 22 30 12 16 1010.4 1010.2 0.0
22/11:00pm 18.3 15.3 12.1 67 3.4 WNW 19 26 10 14 1010.5 1010.3 0.0
22/10:30pm 18.4 15.9 12.4 68 3.3 WNW 17 26 9 14 1010.3 1010.1 0.0
22/10:00pm 18.6 15.8 12.6 68 3.4 WNW 19 24 10 13 1009.8 1009.6 0.0
22/09:30pm 18.6 15.3 12.8 69 3.3 WNW 22 32 12 17 1009.9 1009.7 0.0
22/09:00pm 18.6 14.6 13.0 70 3.2 WNW 26 35 14 19 1009.6 1009.4 0.0
22/08:30pm 18.7 14.7 12.9 69 3.3 WNW 26 33 14 18 1009.3 1009.1 0.0
22/08:00pm 19.2 15.3 13.2 68 3.4 WNW 26 37 14 20 1009.2 1009.0 0.0
22/07:30pm 20.3 15.1 13.3 64 4.0 WNW 33 50 18 27 1008.9 1008.7 0.0
22/07:26pm 20.5 15.4 13.2 63 4.2 WNW 32 50 17 27 1008.9 1008.7 0.0
22/07:00pm 21.8 18.3 13.4 59 4.9 NW 24 35 13 19 1008.2 1008.0 0.0
22/06:35pm 22.7 17.2 12.6 53 5.8 W 33 52 18 28 1006.9 1006.7 0.0
22/06:30pm 23.2 17.1 11.9 49 6.4 W 35 59 19 32 1006.4 1006.2 0.0
22/06:24pm 26.7 20.8 9.1 33 9.7 NW 30 59 16 32 1005.8 1005.6 0.0
22/06:22pm 32.3 26.4 5.7 19 14.2 NNW 26 59 14 32 1005.8 1005.6 0.0
22/06:00pm 33.2 27.0 0.0 12 16.3 NNW 22 37 12 20 1005.5 1005.3 0.0
22/05:35pm 33.1 25.8 -0.1 12 16.2 NNW 28 46 15 25 1005.5 1005.3 0.0
22/05:30pm 33.1 26.2 -0.1 12 16.2 NNW 26 46 14 25 1005.6 1005.4 0.0
22/05:12pm 33.0 25.8 0.9 13 15.9 N 28 48 15 26 1006.1 1005.9 0.0
22/05:00pm 32.9 27.0 1.9 14 15.7 N 22 39 12 21 1006.3 1006.1 0.0
22/04:30pm 32.6 26.9 2.6 15 15.3 N 22 44 12 24 1006.8 1006.6 0.0
22/04:07pm 32.5 25.4 1.6 14 15.5 NNW 28 52 15 28 1007.4 1007.2 0.0
22/04:00pm 32.0 26.7 3.1 16 14.8 NNW 20 35 11 19 1007.7 1007.5 0.0
22/03:30pm 30.7 24.1 2.0 16 14.3 N 26 44 14 24 1008.1 1007.9 0.0
22/03:00pm 31.3 25.1 4.2 18 14.1 N 26 39 14 21 1008.8 1008.6 0.0
22/02:30pm 30.8 24.9 3.8 18 13.9 N 24 39 13 21 1009.4 1009.2 0.0
22/02:00pm 30.2 26.0 4.0 19 13.5 NNW 15 33 8 18 1009.9 1009.7 0.0
22/01:30pm 26.7 24.2 11.2 38 8.8 ENE 15 33 8 18 1009.9 1009.7 0.0
22/01:00pm 27.0 23.2 9.8 34 9.6 ENE 20 32 11 17 1010.2 1010.0 0.0
22/12:30pm 27.4 22.2 5.6 25 11.3 NNE 22 39 12 21 1010.9 1010.7 0.0
22/12:00pm 27.3 22.2 6.1 26 11.1 NNE 22 35 12 19 1011.6 1011.4 0.0
22/11:30am 26.2 20.4 6.3 28 10.4 N 26 43 14 23 1012.1 1011.9 0.0
22/11:00am 24.8 18.1 5.6 29 9.8 N 30 43 16 23 1012.4 1012.2 0.0
22/10:49am 24.7 18.4 5.5 29 9.8 N 28 46 15 25 1012.5 1012.3 0.0
22/10:30am 24.8 17.5 4.5 27 10.2 N 32 48 17 26 1012.4 1012.2 0.0
22/10:10am 24.6 17.7 4.4 27 10.1 N 30 48 16 26 1012.6 1012.4 0.0
22/10:00am 24.1 16.6 4.5 28 9.8 N 33 48 18 26 1012.4 1012.2 0.0
22/09:30am 23.2 16.3 4.7 30 9.2 N 30 43 16 23 1012.7 1012.5 0.0
22/09:00am 21.9 15.1 4.9 33 8.4 N 30 43 16 23 1013.0 1012.9 0.0
22/08:30am 20.8 13.6 4.8 35 7.8 N 32 48 17 26 1013.2 1013.1 0.0
22/08:00am 20.5 13.6 4.5 35 7.8 N 30 41 16 22 1013.2 1013.1 0.0
22/07:30am 19.9 13.3 4.4 36 7.5 N 28 39 15 21 1013.2 1013.1 0.0
22/07:00am 19.2 13.1 4.9 39 6.9 N 26 37 14 20 1013.0 1012.9 0.0
22/06:30am 15.8 11.2 9.7 67 3.2 NNE 24 30 13 16 1013.1 1013.0 0.0
22/06:00am 15.9 11.4 10.0 68 3.1 NE 24 33 13 18 1013.0 1012.9 0.0
22/05:30am 16.1 11.6 11.3 73 2.6 NE 26 33 14 18 1013.3 1013.2 0.0
22/05:00am 15.2 11.1 11.6 79 1.9 NE 24 32 13 17 1013.3 1013.2 0.0
22/04:30am 15.4 10.7 12.0 80 1.9 NE 28 35 15 19 1013.7 1013.6 0.0
22/04:00am 15.6 11.3 12.0 79 2.0 NE 26 35 14 19 1014.1 1014.0 0.0
22/03:30am 15.5 11.2 12.1 80 1.9 NE 26 35 14 19 1014.6 1014.5 0.0
22/03:00am 15.4 11.1 12.2 81 1.7 NE 26 33 14 18 1014.9 1014.8 0.0
22/02:30am 15.6 10.5 12.0 79 2.0 NE 30 44 16 24 1015.3 1015.1 0.0
22/02:00am 15.6 10.1 11.8 78 2.1 NE 32 44 17 24 1015.8 1015.6 0.0
22/01:30am 15.5 10.2 11.3 76 2.3 NE 30 43 16 23 1016.2 1016.0 0.0
22/01:00am 15.5 10.2 11.3 76 2.3 NE 30 48 16 26 1016.5 1016.3 0.0
22/12:53am 15.5 10.2 11.3 76 2.3 NE 30 48 16 26 1016.6 1016.4 0.0
22/12:30am 15.4 10.0 11.0 75 2.4 ENE 30 43 16 23 1016.9 1016.7 0.0
22/12:00am 15.4 9.7 11.0 75 2.3 NE 32 46 17 25 1017.0 1016.8 0.0
 
Date/Time
EDT
Temp
°C
App
Temp
°C
Dew
Point
°C
Rel
Hum
%
Delta-T
°C
Wind Press
QNH
hPa
Press
MSL
hPa
Rain since
9am
mm
Dir  Spd
km/h
Gust
km/h
Spd
kts
Gust
kts
21/11:30pm 15.3 10.3 10.9 75 2.3 ENE 28 43 15 23 1017.6 1017.4 0.0
21/11:00pm 15.2 10.2 10.8 75 2.3 ENE 28 37 15 20 1017.7 1017.5 0.0
21/10:30pm 15.1 10.0 10.7 75 2.3 ENE 28 39 15 21 1017.9 1017.7 0.0
21/10:00pm 15.4 11.1 10.6 73 2.5 E 24 33 13 18 1018.2 1018.0 0.0
21/09:30pm 15.5 11.1 10.5 72 2.6 E 24 33 13 18 1018.3 1018.1 0.0
21/09:00pm 15.5 10.3 10.3 71 2.7 E 28 35 15 19 1018.2 1018.0 0.0
21/08:30pm 15.5 10.7 10.3 71 2.7 E 26 33 14 18 1018.0 1017.8 0.0
21/08:00pm 16.0 12.6 10.5 70 2.9 E 19 28 10 15 1018.1 1017.9 0.0
21/07:30pm 16.2 13.1 10.3 68 3.1 E 17 24 9 13 1018.2 1018.0 0.0
21/07:00pm 16.5 13.3 10.1 66 3.4 E 17 28 9 15 1018.2 1018.0 0.0
21/06:30pm 16.7 13.4 9.6 63 3.7 E 17 28 9 15 1018.3 1018.1 0.0
21/06:00pm 17.1 13.9 10.0 63 3.8 E 17 26 9 14 1018.4 1018.2 0.0
21/05:30pm 17.3 13.5 9.7 61 4.0 E 20 28 11 15 1018.6 1018.4 0.0
21/05:00pm 17.2 13.5 10.1 63 3.8 ESE 20 24 11 13 1018.9 1018.7 0.0
21/04:30pm 17.3 13.7 10.0 62 3.9 ESE 19 24 10 13 1019.3 1019.1 0.0
21/04:00pm 18.0 15.3 10.4 61 4.1 ESE 15 20 8 11 1019.8 1019.6 0.0
21/03:30pm 17.8 15.3 9.7 59 4.3 SE 13 19 7 10 1019.8 1019.6 0.0
21/03:00pm 18.6 17.2 10.9 61 4.2 SE 9 15 5 8 1020.2 1020.0 0.0
21/02:30pm 18.5 17.3 11.6 64 3.8 SSW 9 13 5 7 1020.8 1020.6 0.0
21/02:00pm 18.1 16.9 11.7 66 3.5 SSW 9 15 5 8 1020.9 1020.7 0.0
21/01:30pm 18.9 18.1 12.9 68 3.4 SSW 9 13 5 7 1021.1 1020.9 0.0
21/01:00pm 17.5 16.2 11.3 67 3.4 SSW 9 15 5 8 1021.1 1020.9 0.0
21/12:30pm 17.0 14.9 11.3 69 3.1 SW 13 17 7 9 1021.3 1021.1 0.0
21/12:00pm 16.7 14.9 10.8 68 3.2 SW 11 15 6 8 1021.5 1021.3 0.0
21/11:30am 17.1 16.0 10.5 65 3.5 SSW 7 11 4 6 1021.6 1021.4 0.0
21/11:00am 16.2 14.6 10.1 67 3.2 SW 9 13 5 7 1021.7 1021.5 0.0
21/10:30am 15.8 14.1 9.9 68 3.1 SW 9 13 5 7 1021.5 1021.3 0.0
21/10:00am 15.9 14.3 10.2 69 3.0 SW 9 13 5 7 1021.3 1021.1 0.0
21/09:30am 15.7 13.4 10.5 71 2.8 SW 13 17 7 9 1021.5 1021.3 0.0
21/09:00am 15.4 13.1 10.4 72 2.6 SW 13 17 7 9 1021.2 1021.0 0.2
21/08:30am 15.4 13.5 10.6 73 2.5 SW 11 17 6 9 1021.0 1020.8 0.2
21/08:00am 14.9 12.9 10.3 74 2.4 SSW 11 17 6 9 1020.4 1020.2 0.2
21/07:30am 14.7 12.4 10.3 75 2.3 SW 13 19 7 10 1020.1 1019.9 0.2
21/07:00am 14.7 11.7 10.5 76 2.2 SW 17 22 9 12 1019.8 1019.6 0.2
21/06:30am 14.7 12.0 10.5 76 2.2 SW 15 20 8 11 1019.5 1019.3 0.2
21/06:00am 14.6 11.2 10.6 77 2.1 SW 19 24 10 13 1019.1 1018.9 0.2
21/05:30am 14.5 11.5 10.7 78 2.0 SW 17 22 9 12 1018.8 1018.6 0.2
21/05:00am 14.5 11.5 10.5 77 2.1 SW 17 24 9 13 1018.5 1018.3 0.2
21/04:30am 14.2 10.1 10.2 77 2.1 SW 22 28 12 15 1018.6 1018.4 0.2
21/04:00am 14.6 10.3 10.6 77 2.1 SW 24 32 13 17 1018.5 1018.3 0.2
21/03:30am 14.9 11.0 10.7 76 2.2 WSW 22 32 12 17 1018.4 1018.2 0.2
21/03:00am 14.7 11.0 10.1 74 2.4 WSW 20 28 11 15 1018.3 1018.1 0.2
21/02:30am 14.7 9.9 10.3 75 2.3 SW 26 35 14 19 1018.3 1018.1 0.2
21/02:00am 14.7 10.7 10.3 75 2.3 WSW 22 32 12 17 1018.4 1018.2 0.2
21/01:30am 14.6 10.9 10.2 75 2.3 SW 20 28 11 15 1018.4 1018.2 0.2
21/01:00am 14.8 9.3 10.4 75 2.3 SW 30 37 16 20 1018.6 1018.4 0.2
21/12:30am 14.7 9.5 10.1 74 2.4 WSW 28 41 15 22 1018.6 1018.4 0.2
21/12:00am 14.8 10.7 10.0 73 2.5 WSW 22 32 12 17 1018.5 1018.3 0.2
 
Date/Time
EDT
Temp
°C
App
Temp
°C
Dew
Point
°C
Rel
Hum
%
Delta-T
°C
Wind Press
QNH
hPa
Press
MSL
hPa
Rain since
9am
mm
Dir  Spd
km/h
Gust
km/h
Spd
kts
Gust
kts
20/11:30pm 14.8 10.2 9.8 72 2.6 WSW 24 33 13 18 1018.6 1018.4 0.2
20/11:00pm 14.7 10.1 9.5 71 2.7 WSW 24 32 13 17 1018.3 1018.1 0.2
20/10:30pm 14.5 9.9 9.5 72 2.6 WSW 24 33 13 18 1018.4 1018.2 0.2
20/10:00pm 14.7 9.7 9.5 71 2.7 WSW 26 35 14 19 1018.4 1018.2 0.2
20/09:30pm 14.6 8.7 9.2 70 2.8 SW 30 39 16 21 1018.2 1018.0 0.2
20/09:00pm 14.6 8.8 9.4 71 2.7 SW 30 41 16 22 1017.9 1017.7 0.2
20/08:30pm 14.6 8.8 9.6 72 2.6 WSW 30 43 16 23 1017.5 1017.3 0.2
20/08:00pm 14.9 8.8 9.9 72 2.6 SW 32 41 17 22 1017.0 1016.8 0.2
20/07:30pm 14.9 8.7 9.5 70 2.8 SW 32 43 17 23 1016.6 1016.4 0.2
20/07:00pm 15.1 9.9 10.1 72 2.6 WSW 28 43 15 23 1016.2 1016.0 0.2
20/06:30pm 15.2 9.5 9.8 70 2.8 WSW 30 44 16 24 1016.0 1015.8 0.2
20/06:00pm 15.1 8.4 9.5 69 2.9 SW 35 50 19 27 1015.7 1015.5 0.2
20/05:30pm 15.5 9.0 10.3 71 2.7 SW 35 50 19 27 1015.5 1015.3 0.2
20/05:00pm 15.8 8.5 10.1 69 3.0 WSW 39 52 21 28 1015.2 1015.0 0.2
20/04:30pm 15.7 9.2 10.5 71 2.8 WSW 35 46 19 25 1015.1 1014.9 0.2
20/04:00pm 16.5 10.3 10.1 66 3.4 WSW 33 48 18 26 1014.9 1014.8 0.2
20/03:30pm 16.3 9.5 10.6 69 3.0 WSW 37 48 20 26 1014.8 1014.7 0.2
20/03:00pm 15.9 9.0 11.5 75 2.4 WSW 39 52 21 28 1014.7 1014.6 0.2
20/02:38pm 14.2 7.7 10.4 78 2.0 WSW 35 54 19 29 1014.6 1014.5 0.2
20/02:30pm 14.5 7.7 10.7 78 2.0 WSW 37 54 20 29 1014.6 1014.5 0.2
20/02:18pm 14.8 8.7 10.6 76 2.2 WSW 33 57 18 31 1014.5 1014.4 0.2
20/02:00pm 14.7 9.0 11.1 79 1.9 WSW 32 46 17 25 1014.4 1014.3 0.2
20/01:30pm 14.4 8.0 10.8 79 1.9 SW 35 50 19 27 1014.5 1014.4 0.0
20/01:01pm 14.9 8.8 10.5 75 2.3 WSW 33 59 18 32 1014.3 1014.2 0.0
20/01:00pm 15.0 9.1 10.6 75 2.3 WSW 32 48 17 26 1014.3 1014.2 0.0
20/12:30pm 15.2 8.2 9.8 70 2.8 WSW 37 56 20 30 1014.3 1014.2 0.0
20/12:23pm 15.0 7.9 9.6 70 2.8 WSW 37 56 20 30 1014.2 1014.1 0.0
20/12:00pm 15.5 9.2 9.6 68 3.1 WSW 33 48 18 26 1014.3 1014.2 0.0
20/11:30am 15.3 8.6 9.7 69 2.9 WSW 35 50 19 27 1014.2 1014.1 0.0
20/11:00am 14.7 6.8 9.5 71 2.7 SW 41 54 22 29 1014.2 1014.1 0.0
20/10:40am 14.8 7.7 9.4 70 2.8 WSW 37 56 20 30 1013.9 1013.8 0.0
20/10:30am 15.0 7.9 9.4 69 2.9 SW 37 52 20 28 1013.9 1013.8 0.0
20/10:00am 14.8 8.1 9.6 71 2.7 SW 35 50 19 27 1013.7 1013.6 0.0
20/09:30am 14.5 7.0 9.5 72 2.6 SW 39 57 21 31 1013.3 1013.2 0.0
20/09:29am 14.5 7.0 9.5 72 2.6 SW 39 57 21 31 1013.3 1013.2 0.0

Other Formats:

Comma delimited format used in spreadsheet applications
http://www.bom.gov.au/fwo/IDV60801/IDV60801.94842.axf

JavaScript Object Notation format (JSON) in row-major order
http://www.bom.gov.au/fwo/IDV60801/IDV60801.94842.json